Greenville, MS

1:36 PM CST on February 14, 2016 (GMT -0600)
Q102 Downtown Greenville | | Change Station
CLOSE
Current Station
Personal Weather Station
Location: Greenville, MS
Elevation: 141 ft
Nearby Weather Stations

Elev 141 ft 33.41 °N, 91.06 °W | Updated 45 seconds ago

Mostly Cloudy
Mostly Cloudy
57.2 °F
Feels Like 57.2 °F
N
14.8
Wind Variable Wind from South
Gusts 16.1 mph

Today
High -- | Low -- °F
--% Chance of Precip.
Yesterday
High -- | Low -- °F
Precip. -- in
Pressure 30.09 in
Visibility 9.0 miles
Clouds Scattered Clouds 4400 ft
Mostly Cloudy 5500 ft
Mostly Cloudy 7500 ft
Dew Point 36 °F
Humidity 45%
Rainfall 0.00 in
Snow Depth Not available.
6:49 AM 5:47 PM
Waxing Crescent, 44% visible
METAR KGLH 141853Z AUTO 19013KT 9SM -RA SCT044 BKN055 BKN075 13/M01 A3006 RMK AO2 RAE01B17 SLP188 P0000 T01281011
Pressure 30.09 in
Visibility 9.0 miles
Clouds Scattered Clouds 4400 ft
Mostly Cloudy 5500 ft
Mostly Cloudy 7500 ft
Dew Point 36 °F
Humidity 45%
Rainfall 0.00 in
Snow Depth Not available.
6:49 AM 5:47 PM
Waxing Crescent, 44% visible
METAR KGLH 141853Z AUTO 19013KT 9SM -RA SCT044 BKN055 BKN075 13/M01 A3006 RMK AO2 RAE01B17 SLP188 P0000 T01281011

10-Day Weather Forecast

Almanac

Astronomy

Feb. 14, 2016 Rise Set
Actual Time
Civil Twilight
Nautical Twilight
Astronomical Twilight
Moon
Length of Visible Light
Length of Day
Tomorrow will be .
, % of the Moon is Illuminated

Today's Extremes

State Highs State Lows

Community

WunderPhotos

Upload Photos

1,892,878 photos uploaded!

WunderBlog® & News

Nearby

Air Quality

  Air Quality AQ Index Pollutant
Not available.

Snow Depth

Station Depth Elevation

Earthquake Activity

City Distance Mag. Time & Date
Minimum magnitude displayed is 2.5.

Coastal Water Temperatures

Place Temperature

Stations

Nearby Weather Stations

Station Location Temp. Windchill Dew Point Humidity Wind Precip. Elev Updated Type
                   

Watches & Warnings

There are currently no watches in effect.